Pagina principale
METAR-TAF:

METAR-TAF

Aeroporti :

Bingöl, Turchia

latitudine: 38-51-40N, longitudine: 40-35-33E, altezza: 1063 m

Osservazione

Il bollettino è stato emesso 32 minuti fa, alle 05:50 UTC
Vento 2 kt da direzioni variabili
Temperature 30°C
Umidità 35%
Pressione 1013 hPa
Visibilità 10 km o più
nessuna nube inferiore a 1500 m e nessun cumulonembo

METAR: LTCU 270550Z VRB02KT CAVOK 30/13 Q1013

Ora: 09:22 (06:22 UTC)

Previsione

Il bollettino è stato emesso 1 ora e 42 minuti fa, alle 04:40 UTC
Previsione valida dal 27 alle 06 UTC al 27 alle 15 UTC
Vento 2 kt da direzioni variabili
Visibilità 10 km o più
nessuna nube inferiore a 1500 m e nessun cumulonembo
Evoluzione graduale
dal 27 alle 07 UTC al 27 alle 10 UTC
Poco nuvoloso ad un'altezza di 3500 ft

TAF: LTCU 270440Z 2706/2715 VRB02KT CAVOK BECMG 2707/2710 FEW035

Osservazioni e previsioni meteorologiche di più di 4000 aeroporti (messaggi METAR e TAF).

Le stazioni disponibili sono rappresentate dai dischi gialli e rossi sulla carta.

Puntare il mouse per vedere il nome della stazione.

Clicca sopra per visualizzare le osservazioni e previsioni meteorologiche.

Per cambiare la mappa : fare clic sui pulsanti verdi con una croce nera per ingrandire, il pulsante verde con un trattino per diminuire, o sulla freccia verde per le mappe adiacenti.


METAR-TAF: